Time;durP1;ratioP1;P1;durP2;ratioP2;P2;SDS_P1;SDS_P2;PMS_P1;PMS_P2;Temp;Humidity;BMP_temperature;BMP_pressure;BME280_temperature;BME280_humidity;BME280_pressure;Samples;Min_cycle;Max_cycle;Signal;HPM_P1;HPM_P2
2021/08/08 00:01:13;;;;;;;11.05;3.53;;;538.40;2252.80;;;;;;4972926;28;20025;-83
2021/08/08 00:03:42;;;;;;;8.00;4.15;;;538.30;2252.80;;;;;;4972618;28;20023;-81
2021/08/08 00:06:15;;;;;;;8.07;3.95;;;538.00;2252.80;;;;;;4972690;28;20073;-83
2021/08/08 00:08:55;;;;;;;13.93;4.95;;;537.90;2304.00;;;;;;4973644;28;20027;-83
2021/08/08 00:11:29;;;;;;;8.15;4.00;;;537.70;2329.60;;;;;;4973861;28;20023;-83
2021/08/08 00:14:08;;;;;;;7.57;3.75;;;537.60;2355.20;;;;;;4973585;28;20058;-81
2021/08/08 00:16:48;;;;;;;10.27;4.10;;;537.90;2329.60;;;;;;4973266;28;20049;-83
2021/08/08 00:19:25;;;;;;;8.82;3.88;;;538.00;2329.60;;;;;;4972830;28;20023;-82
2021/08/08 00:21:57;;;;;;;6.70;3.60;;;538.20;2329.60;;;;;;4972745;28;20027;-82
2021/08/08 00:24:23;;;;;;;11.80;3.53;;;538.10;2329.60;;;;;;4972742;28;20019;-81
2021/08/08 00:26:49;;;;;;;8.48;4.50;;;538.10;2329.60;;;;;;4973825;28;20118;-82
2021/08/08 00:29:14;;;;;;;9.98;4.18;;;538.10;2329.60;;;;;;4973537;28;20030;-82
2021/08/08 00:31:40;;;;;;;10.68;4.05;;;538.20;2304.00;;;;;;4973988;28;20368;-82
2021/08/08 00:34:06;;;;;;;9.00;4.03;;;538.00;2355.20;;;;;;4973867;28;20133;-81
2021/08/08 00:36:34;;;;;;;9.90;4.90;;;537.80;2355.20;;;;;;4973323;28;20027;-81
2021/08/08 00:39:00;;;;;;;11.30;4.07;;;537.90;2355.20;;;;;;4973266;28;20049;-81
2021/08/08 00:41:28;;;;;;;11.75;4.72;;;538.00;2355.20;;;;;;4973489;28;20026;-82
2021/08/08 00:43:57;;;;;;;10.20;3.90;;;538.00;2355.20;;;;;;4972366;28;20031;-80
2021/08/08 00:46:27;;;;;;;11.75;4.65;;;538.00;2380.80;;;;;;4971582;28;20030;-82
2021/08/08 00:49:00;;;;;;;10.05;4.25;;;537.70;2380.80;;;;;;4972776;28;20465;-82
2021/08/08 00:51:30;;;;;;;11.30;3.60;;;537.70;2406.40;;;;;;4972675;28;20026;-81
2021/08/08 00:53:56;;;;;;;13.27;3.88;;;537.60;2406.40;;;;;;4973196;28;20434;-81
2021/08/08 00:56:22;;;;;;;11.70;3.63;;;512.60;2380.80;;;;;;4972831;28;20136;-81
2021/08/08 00:58:48;;;;;;;9.82;3.90;;;512.20;2380.80;;;;;;4972747;28;20026;-80
2021/08/08 01:01:18;;;;;;;8.25;4.00;;;487.20;2380.80;;;;;;4971867;28;20027;-82
2021/08/08 01:03:45;;;;;;;9.80;3.70;;;487.20;2380.80;;;;;;4972663;28;20027;-83
2021/08/08 01:06:14;;;;;;;8.73;3.33;;;487.30;2380.80;;;;;;4973194;28;20469;-82
2021/08/08 01:08:48;;;;;;;13.70;4.50;;;512.00;2380.80;;;;;;4975062;28;20015;-82
2021/08/08 01:11:16;;;;;;;8.50;4.30;;;487.20;2380.80;;;;;;4979058;28;20034;-83
2021/08/08 01:13:43;;;;;;;11.40;4.05;;;487.00;2380.80;;;;;;4977055;28;20061;-82
2021/08/08 01:16:09;;;;;;;6.32;3.45;;;487.10;2380.80;;;;;;4977388;28;20046;-81
2021/08/08 01:18:36;;;;;;;8.75;3.55;;;487.20;2380.80;;;;;;4977011;28;20065;-83
2021/08/08 01:21:02;;;;;;;7.63;3.65;;;487.30;2380.80;;;;;;4976925;28;20027;-82
2021/08/08 01:23:33;;;;;;;5.90;3.45;;;487.10;2380.80;;;;;;4977109;28;20038;-82
2021/08/08 01:26:00;;;;;;;10.88;3.40;;;487.20;2380.80;;;;;;4976698;28;20050;-82
2021/08/08 01:28:26;;;;;;;7.03;3.30;;;512.40;2380.80;;;;;;4976801;28;20027;-82
2021/08/08 01:30:57;;;;;;;6.80;3.70;;;487.00;2380.80;;;;;;4977787;28;20027;-81
2021/08/08 01:33:22;;;;;;;9.27;3.45;;;487.20;2380.80;;;;;;4976945;28;20030;-82
2021/08/08 01:35:52;;;;;;;7.53;3.58;;;487.30;2380.80;;;;;;4976055;28;20122;-82
2021/08/08 01:38:20;;;;;;;9.45;3.42;;;512.10;2380.80;;;;;;4976555;28;20026;-82
2021/08/08 01:40:57;;;;;;;7.32;2.90;;;512.20;2380.80;;;;;;4976123;28;20049;-82
2021/08/08 01:43:28;;;;;;;7.88;3.67;;;512.10;2380.80;;;;;;4976927;28;20023;-83
2021/08/08 01:46:04;;;;;;;7.63;3.47;;;512.10;2380.80;;;;;;4976931;28;20023;-83
2021/08/08 01:48:33;;;;;;;6.78;3.33;;;512.20;2380.80;;;;;;4977430;28;20031;-82
2021/08/08 01:51:00;;;;;;;9.60;3.33;;;512.30;2380.80;;;;;;4979172;28;20038;-83
2021/08/08 01:53:29;;;;;;;8.20;3.70;;;512.20;2380.80;;;;;;4977653;28;20031;-82
2021/08/08 01:55:56;;;;;;;8.43;3.42;;;487.30;2380.80;;;;;;4977550;28;20038;-82
2021/08/08 01:58:27;;;;;;;11.90;5.30;;;487.00;2380.80;;;;;;4977610;28;20058;-84
2021/08/08 02:01:02;;;;;;;20.73;10.55;;;486.90;2380.80;;;;;;4976992;28;20041;-83
2021/08/08 02:03:41;;;;;;;14.35;7.25;;;486.80;2380.80;;;;;;4976553;28;20047;-83
2021/08/08 02:06:10;;;;;;;9.98;4.68;;;486.70;2380.80;;;;;;4976282;28;20058;-81
2021/08/08 02:08:36;;;;;;;7.53;4.45;;;486.70;2380.80;;;;;;4976557;28;20093;-82
2021/08/08 02:11:03;;;;;;;8.82;4.32;;;486.80;2380.80;;;;;;4976556;28;20031;-82
2021/08/08 02:13:31;;;;;;;8.70;3.63;;;486.90;2380.80;;;;;;4976428;28;20368;-84
2021/08/08 02:15:57;;;;;;;6.72;3.55;;;486.90;2380.80;;;;;;4976489;28;20034;-81
2021/08/08 02:18:23;;;;;;;7.18;3.30;;;487.10;2380.80;;;;;;4976264;28;20457;-84
2021/08/08 02:20:49;;;;;;;8.20;3.67;;;486.70;2380.80;;;;;;4974927;28;20031;-82
2021/08/08 02:23:18;;;;;;;6.03;3.17;;;486.60;2380.80;;;;;;4975951;28;20424;-81
2021/08/08 02:25:50;;;;;;;6.75;3.33;;;486.50;2380.80;;;;;;4975816;28;20027;-82
2021/08/08 02:28:16;;;;;;;12.25;3.30;;;486.60;2380.80;;;;;;4975569;28;20030;-81
2021/08/08 02:30:42;;;;;;;9.63;3.17;;;486.60;2380.80;;;;;;4975186;28;20038;-81
2021/08/08 02:33:08;;;;;;;7.30;3.45;;;486.60;2380.80;;;;;;4974707;28;20026;-82
2021/08/08 02:35:34;;;;;;;8.82;3.92;;;486.40;2380.80;;;;;;4974624;28;20025;-81
2021/08/08 02:38:00;;;;;;;7.45;3.50;;;486.70;2380.80;;;;;;4975622;28;20062;-81
2021/08/08 02:40:26;;;;;;;7.18;2.97;;;486.80;2380.80;;;;;;4975542;28;20030;-82
2021/08/08 02:42:51;;;;;;;8.20;3.47;;;486.70;2380.80;;;;;;4975561;28;20019;-80
2021/08/08 02:45:17;;;;;;;8.05;3.60;;;486.70;2380.80;;;;;;4975270;28;20057;-84
2021/08/08 02:47:43;;;;;;;6.57;3.22;;;486.60;2380.80;;;;;;4974722;28;20037;-84
2021/08/08 02:50:15;;;;;;;8.20;3.55;;;461.70;2380.80;;;;;;4974348;28;20049;-84
2021/08/08 02:52:44;;;;;;;8.35;3.35;;;461.70;2380.80;;;;;;4975435;28;20069;-84
2021/08/08 02:55:11;;;;;;;9.70;3.75;;;461.70;2380.80;;;;;;4974949;28;20019;-84
2021/08/08 02:57:37;;;;;;;5.88;3.20;;;461.60;2380.80;;;;;;4975050;28;20026;-84
2021/08/08 03:00:04;;;;;;;7.90;3.38;;;461.60;2380.80;;;;;;4975328;28;20372;-84
2021/08/08 03:02:30;;;;;;;7.97;3.53;;;461.10;2380.80;;;;;;4974855;28;20019;-84
2021/08/08 03:04:56;;;;;;;7.63;3.20;;;486.40;2380.80;;;;;;4975518;28;20346;-85
2021/08/08 03:07:27;;;;;;;8.18;3.00;;;486.50;2380.80;;;;;;4975126;28;20065;-82
2021/08/08 03:09:53;;;;;;;5.97;3.03;;;486.40;2380.80;;;;;;4977743;28;20030;-83
2021/08/08 03:12:19;;;;;;;13.45;3.22;;;486.60;2380.80;;;;;;4984694;28;20019;-84
2021/08/08 03:14:45;;;;;;;8.88;3.25;;;486.50;2380.80;;;;;;4984976;28;20118;-83
2021/08/08 03:17:11;;;;;;;8.88;3.45;;;486.60;2380.80;;;;;;4978199;28;20054;-84
2021/08/08 03:19:37;;;;;;;7.35;3.33;;;486.40;2380.80;;;;;;4975085;28;20442;-85
2021/08/08 03:22:04;;;;;;;9.88;3.28;;;486.50;2380.80;;;;;;4974943;28;20027;-85
2021/08/08 03:24:42;;;;;;;9.55;3.25;;;486.60;2380.80;;;;;;4974661;28;20033;-84
2021/08/08 03:27:28;;;;;;;7.90;2.88;;;486.80;2380.80;;;;;;4974454;28;20030;-81
2021/08/08 03:29:54;;;;;;;5.22;2.53;;;486.90;2380.80;;;;;;4974204;28;20126;-81
2021/08/08 03:32:20;;;;;;;5.45;2.80;;;486.90;2380.80;;;;;;4974500;28;20082;-81
2021/08/08 03:34:48;;;;;;;9.07;2.78;;;487.00;2380.80;;;;;;4974600;28;20023;-82
2021/08/08 03:37:20;;;;;;;7.65;3.13;;;487.00;2380.80;;;;;;4974251;28;20030;-81
2021/08/08 03:39:46;;;;;;;7.57;3.00;;;487.00;2380.80;;;;;;4974494;28;20027;-81
2021/08/08 03:42:11;;;;;;;6.38;3.17;;;486.90;2380.80;;;;;;4974596;28;20105;-81
2021/08/08 03:44:43;;;;;;;8.48;3.08;;;487.00;2380.80;;;;;;4974146;28;20031;-81
2021/08/08 03:47:09;;;;;;;13.15;4.60;;;487.10;2380.80;;;;;;4974160;28;20042;-82
2021/08/08 03:49:37;;;;;;;16.48;5.07;;;486.90;2380.80;;;;;;4975068;28;20074;-82
2021/08/08 03:52:03;;;;;;;9.20;4.25;;;486.70;2380.80;;;;;;4973769;28;20530;-81
2021/08/08 03:54:30;;;;;;;10.05;4.63;;;486.50;2380.80;;;;;;4974298;28;20053;-81
2021/08/08 03:56:55;;;;;;;9.73;4.55;;;486.40;2380.80;;;;;;4974153;28;20069;-84
2021/08/08 03:59:21;;;;;;;11.18;4.20;;;461.70;2380.80;;;;;;4974027;28;20054;-83
2021/08/08 04:01:47;;;;;;;11.63;4.65;;;461.40;2380.80;;;;;;4974152;28;20464;-84
2021/08/08 04:04:13;;;;;;;7.93;4.30;;;461.30;2380.80;;;;;;4974277;28;20054;-84
2021/08/08 04:06:39;;;;;;;12.35;4.57;;;461.30;2380.80;;;;;;4973629;28;20038;-83
2021/08/08 04:09:04;;;;;;;13.32;4.35;;;461.40;2380.80;;;;;;4974181;28;20023;-84
2021/08/08 04:11:30;;;;;;;6.40;4.00;;;461.10;2380.80;;;;;;4975064;28;20037;-84
2021/08/08 04:13:56;;;;;;;7.70;3.95;;;461.20;2380.80;;;;;;4974625;28;20106;-84
2021/08/08 04:16:22;;;;;;;7.60;3.88;;;461.00;2380.80;;;;;;4974094;28;20031;-85
2021/08/08 04:18:48;;;;;;;10.95;3.67;;;436.10;2355.20;;;;;;4975311;28;20161;-83
2021/08/08 04:21:14;;;;;;;12.25;3.83;;;436.10;2355.20;;;;;;4982464;28;20011;-83
2021/08/08 04:23:40;;;;;;;13.60;4.25;;;460.80;2380.80;;;;;;4998577;28;20018;-82
2021/08/08 04:26:05;;;;;;;7.20;4.57;;;460.90;2380.80;;;;;;4998457;28;20023;-83
2021/08/08 04:28:32;;;;;;;11.80;4.40;;;436.10;2355.20;;;;;;4998634;28;20079;-83
2021/08/08 04:30:58;;;;;;;11.63;5.38;;;460.80;2380.80;;;;;;4998745;28;20012;-83
2021/08/08 04:33:23;;;;;;;11.07;4.78;;;460.90;2380.80;;;;;;4998456;28;20015;-83
2021/08/08 04:35:49;;;;;;;10.02;4.07;;;436.10;2355.20;;;;;;4998469;28;20015;-83
2021/08/08 04:38:15;;;;;;;7.70;4.38;;;460.80;2380.80;;;;;;4998577;28;20023;-84
2021/08/08 04:40:41;;;;;;;8.30;4.28;;;461.10;2380.80;;;;;;4990783;28;20022;-84
2021/08/08 04:43:07;;;;;;;8.40;4.13;;;461.10;2380.80;;;;;;4975561;28;20026;-84
2021/08/08 04:45:32;;;;;;;9.27;3.53;;;460.90;2380.80;;;;;;4979035;28;20030;-84
2021/08/08 04:47:58;;;;;;;10.20;4.25;;;460.90;2380.80;;;;;;4978696;28;20030;-84
2021/08/08 04:50:24;;;;;;;6.78;3.65;;;461.10;2380.80;;;;;;4979108;28;20069;-84
2021/08/08 04:52:50;;;;;;;9.48;4.82;;;461.10;2380.80;;;;;;4978975;28;20026;-84
2021/08/08 04:55:16;;;;;;;11.73;3.85;;;461.00;2380.80;;;;;;4979010;28;20118;-84
2021/08/08 04:57:42;;;;;;;8.57;4.13;;;461.20;2380.80;;;;;;4979042;28;20366;-85
2021/08/08 05:00:09;;;;;;;9.95;4.55;;;460.90;2380.80;;;;;;4977758;28;20117;-84
2021/08/08 05:02:36;;;;;;;14.43;4.88;;;461.20;2380.80;;;;;;4977439;28;20457;-85
2021/08/08 05:05:06;;;;;;;14.35;4.53;;;486.40;2380.80;;;;;;4978119;28;20023;-84
2021/08/08 05:07:36;;;;;;;10.18;5.07;;;461.60;2380.80;;;;;;4977102;28;20105;-84
2021/08/08 05:10:01;;;;;;;13.75;5.63;;;461.70;2380.80;;;;;;4976872;28;20027;-83
2021/08/08 05:12:27;;;;;;;16.00;5.70;;;461.70;2380.80;;;;;;4976979;28;20025;-84
2021/08/08 05:14:53;;;;;;;18.80;6.93;;;461.70;2380.80;;;;;;4976813;28;20137;-84
2021/08/08 05:17:19;;;;;;;14.45;5.32;;;461.70;2380.80;;;;;;4976861;28;20034;-84
2021/08/08 05:19:44;;;;;;;12.80;5.55;;;461.50;2380.80;;;;;;4976914;28;20030;-84
2021/08/08 05:22:10;;;;;;;11.05;5.65;;;461.40;2380.80;;;;;;4976406;28;20026;-84
2021/08/08 05:24:36;;;;;;;16.67;5.80;;;461.40;2380.80;;;;;;4976708;28;20029;-84
2021/08/08 05:27:03;;;;;;;11.82;4.60;;;461.40;2380.80;;;;;;4976889;28;20039;-84
2021/08/08 05:29:28;;;;;;;7.57;4.60;;;461.60;2380.80;;;;;;4979019;28;20484;-84
2021/08/08 05:31:54;;;;;;;11.93;5.15;;;461.70;2380.80;;;;;;4976750;28;20023;-85
2021/08/08 05:34:20;;;;;;;12.80;4.78;;;486.60;2380.80;;;;;;4976837;28;20023;-83
2021/08/08 05:36:46;;;;;;;9.80;4.55;;;486.80;2380.80;;;;;;4977988;28;20480;-84
2021/08/08 05:39:11;;;;;;;12.63;4.50;;;486.90;2380.80;;;;;;4976561;28;20031;-84
2021/08/08 05:41:37;;;;;;;12.93;5.03;;;487.00;2380.80;;;;;;4976497;28;20023;-83
2021/08/08 05:44:04;;;;;;;9.25;5.25;;;487.10;2380.80;;;;;;4976450;28;20200;-82
2021/08/08 05:46:29;;;;;;;9.25;4.82;;;435.90;2355.20;;;;;;4976162;28;20038;-82
2021/08/08 05:48:55;;;;;;;10.90;5.18;;;487.00;2380.80;;;;;;4976064;28;20035;-82
2021/08/08 05:51:21;;;;;;;11.85;5.22;;;487.00;2380.80;;;;;;4976127;28;20038;-81
2021/08/08 05:53:47;;;;;;;11.10;5.25;;;487.10;2380.80;;;;;;4976444;28;20023;-82
2021/08/08 05:56:13;;;;;;;9.82;4.82;;;487.20;2380.80;;;;;;4975310;28;20023;-81
2021/08/08 05:58:38;;;;;;;9.73;4.30;;;512.00;2380.80;;;;;;4975966;28;20346;-83
2021/08/08 06:01:04;;;;;;;7.80;3.95;;;512.20;2380.80;;;;;;4976052;28;20026;-82
2021/08/08 06:03:30;;;;;;;6.63;3.67;;;512.20;2380.80;;;;;;4976133;28;20050;-81
2021/08/08 06:05:58;;;;;;;8.95;4.00;;;512.50;2380.80;;;;;;4975834;28;20019;-81
2021/08/08 06:08:24;;;;;;;5.45;3.20;;;512.50;2380.80;;;;;;4976058;28;20072;-82
2021/08/08 06:10:50;;;;;;;7.22;3.50;;;512.50;2380.80;;;;;;4975830;28;20059;-80
2021/08/08 06:13:16;;;;;;;6.93;3.45;;;512.50;2380.80;;;;;;4975982;28;20053;-82
2021/08/08 06:15:43;;;;;;;6.97;3.58;;;512.80;2380.80;;;;;;4975808;28;20049;-82
2021/08/08 06:18:10;;;;;;;6.65;3.03;;;512.90;2380.80;;;;;;4975091;28;20596;-82
2021/08/08 06:20:36;;;;;;;7.95;3.47;;;512.90;2380.80;;;;;;4975745;28;20062;-81
2021/08/08 06:23:02;;;;;;;7.07;3.38;;;512.90;2380.80;;;;;;4975408;28;20033;-82
2021/08/08 06:25:30;;;;;;;8.40;3.40;;;537.60;2406.40;;;;;;4975386;28;20431;-82
2021/08/08 06:27:56;;;;;;;6.60;3.45;;;537.60;2406.40;;;;;;4975640;28;20038;-82
2021/08/08 06:30:28;;;;;;;10.52;3.45;;;537.80;2406.40;;;;;;4975041;28;20019;-81
2021/08/08 06:32:53;;;;;;;5.68;3.13;;;537.90;2406.40;;;;;;4974865;28;20449;-82
2021/08/08 06:35:19;;;;;;;6.72;3.42;;;538.00;2406.40;;;;;;4976405;28;20073;-82
2021/08/08 06:37:45;;;;;;;7.25;3.17;;;538.20;2406.40;;;;;;4975384;28;20097;-81
2021/08/08 06:40:15;;;;;;;7.53;3.38;;;538.40;2406.40;;;;;;4974877;28;20354;-82
2021/08/08 06:42:41;;;;;;;9.13;3.15;;;537.80;2406.40;;;;;;4975367;28;20041;-82
2021/08/08 06:45:07;;;;;;;6.40;2.97;;;563.20;2432.00;;;;;;4975012;28;20027;-82
2021/08/08 06:47:36;;;;;;;6.07;2.85;;;563.60;2432.00;;;;;;4974005;28;20043;-81
2021/08/08 06:50:02;;;;;;;5.93;3.17;;;563.50;2432.00;;;;;;4974190;28;20051;-81
2021/08/08 06:52:28;;;;;;;6.00;2.88;;;563.60;2432.00;;;;;;4974892;28;20069;-82
2021/08/08 06:54:54;;;;;;;7.85;3.10;;;563.80;2432.00;;;;;;4974991;28;20461;-81
2021/08/08 06:57:28;;;;;;;5.22;2.70;;;563.80;2432.00;;;;;;4976227;28;20029;-81
2021/08/08 06:59:54;;;;;;;4.90;2.47;;;564.00;2432.00;;;;;;4974465;28;20416;-82
2021/08/08 07:02:21;;;;;;;6.63;2.88;;;564.10;2432.00;;;;;;4974984;28;20077;-81
2021/08/08 07:04:47;;;;;;;5.97;3.00;;;588.80;2432.00;;;;;;4975030;28;20369;-81
2021/08/08 07:07:15;;;;;;;6.00;3.35;;;588.90;2432.00;;;;;;4974670;28;20030;-81
2021/08/08 07:09:41;;;;;;;4.68;2.92;;;589.20;2432.00;;;;;;4975073;28;20114;-82
2021/08/08 07:12:07;;;;;;;5.22;2.47;;;589.20;2432.00;;;;;;4975038;28;20118;-81
2021/08/08 07:14:35;;;;;;;6.25;3.42;;;589.50;2432.00;;;;;;4974613;28;20086;-82
2021/08/08 07:17:01;;;;;;;9.13;3.35;;;589.70;2432.00;;;;;;4974794;28;20065;-80
2021/08/08 07:19:27;;;;;;;6.78;2.92;;;589.70;2432.00;;;;;;4974742;28;20110;-81
2021/08/08 07:21:53;;;;;;;8.27;3.30;;;614.40;2432.00;;;;;;4974488;28;20029;-81
2021/08/08 07:24:20;;;;;;;7.90;5.30;;;614.70;2432.00;;;;;;4974505;28;20026;-81
2021/08/08 07:26:46;;;;;;;8.63;5.45;;;614.90;2432.00;;;;;;4974399;28;20039;-81
2021/08/08 07:29:11;;;;;;;10.57;5.15;;;615.10;2432.00;;;;;;4974302;28;20022;-81
2021/08/08 07:31:37;;;;;;;9.50;5.78;;;615.30;2406.40;;;;;;4975345;28;20105;-82
2021/08/08 07:34:03;;;;;;;7.05;5.00;;;640.10;2380.80;;;;;;4976018;28;20034;-82
2021/08/08 07:36:29;;;;;;;9.10;5.95;;;640.30;2329.60;;;;;;4974426;28;20041;-81
2021/08/08 07:38:55;;;;;;;6.97;4.78;;;640.50;2304.00;;;;;;4974399;28;20030;-81
2021/08/08 07:41:20;;;;;;;10.13;6.22;;;640.50;2252.80;;;;;;4976635;28;20022;-82
2021/08/08 07:43:46;;;;;;;4.47;2.75;;;640.70;2252.80;;;;;;4973841;28;20022;-82
2021/08/08 07:46:12;;;;;;;7.15;4.40;;;640.70;2227.20;;;;;;4974264;28;20023;-82
2021/08/08 07:48:38;;;;;;;9.57;4.18;;;640.80;2227.20;;;;;;4974400;28;20030;-82
2021/08/08 07:51:04;;;;;;;5.65;3.20;;;665.60;2252.80;;;;;;4974005;28;20138;-82
2021/08/08 07:53:30;;;;;;;6.57;4.05;;;665.70;2227.20;;;;;;4974478;28;20019;-82
2021/08/08 07:55:55;;;;;;;17.23;6.93;;;666.00;2201.60;;;;;;4973977;28;20080;-82
2021/08/08 07:58:24;;;;;;;8.70;4.70;;;666.20;2201.60;;;;;;4973936;28;20019;-81
2021/08/08 08:00:50;;;;;;;11.07;6.20;;;666.50;2201.60;;;;;;4973905;28;20023;-83
2021/08/08 08:03:16;;;;;;;5.93;3.13;;;666.50;2176.00;;;;;;4973924;28;20026;-81
2021/08/08 08:05:42;;;;;;;6.60;3.58;;;691.30;2150.40;;;;;;4974183;28;20154;-81
2021/08/08 08:08:09;;;;;;;8.18;4.25;;;691.30;2124.80;;;;;;4974138;28;20130;-81
2021/08/08 08:10:35;;;;;;;5.00;3.35;;;691.50;2150.40;;;;;;4973889;28;20034;-81
2021/08/08 08:13:02;;;;;;;5.70;3.63;;;691.70;2124.80;;;;;;4974302;28;20030;-83
2021/08/08 08:15:28;;;;;;;14.65;3.92;;;691.80;2099.20;;;;;;4973885;28;20027;-81
2021/08/08 08:17:55;;;;;;;6.88;3.00;;;691.90;2073.60;;;;;;4973724;28;20027;-81
2021/08/08 08:20:21;;;;;;;5.07;3.17;;;691.90;2048.00;;;;;;4974073;28;20054;-80
2021/08/08 08:22:48;;;;;;;5.60;2.88;;;717.00;2099.20;;;;;;4974354;28;20443;-81
2021/08/08 08:25:14;;;;;;;7.15;3.28;;;716.90;2048.00;;;;;;4973800;28;20049;-80
2021/08/08 08:27:41;;;;;;;6.50;3.90;;;717.10;2048.00;;;;;;4973763;28;20066;-80
2021/08/08 08:30:07;;;;;;;6.72;4.72;;;717.30;2022.40;;;;;;4973791;28;20019;-80
2021/08/08 08:32:33;;;;;;;7.43;5.05;;;717.40;1996.80;;;;;;4973726;28;20368;-80
2021/08/08 08:35:02;;;;;;;7.13;4.53;;;717.40;1996.80;;;;;;4973888;28;20026;-81
2021/08/08 08:37:28;;;;;;;5.88;2.63;;;717.50;1996.80;;;;;;4974681;28;20054;-78
2021/08/08 08:39:54;;;;;;;4.78;2.85;;;717.50;1945.60;;;;;;4983170;28;20125;-79
2021/08/08 08:42:22;;;;;;;6.88;3.40;;;742.40;1996.80;;;;;;4965542;28;20517;-81
2021/08/08 08:44:52;;;;;;;6.65;3.38;;;742.50;1945.60;;;;;;4966300;28;20019;-80
2021/08/08 08:47:18;;;;;;;9.43;3.67;;;742.60;1945.60;;;;;;4961794;28;20027;-78
2021/08/08 08:49:48;;;;;;;9.20;4.60;;;742.80;1971.20;;;;;;4960827;28;20046;-79
2021/08/08 08:52:21;;;;;;;4.75;2.97;;;743.00;1945.60;;;;;;4973467;28;20070;-78
2021/08/08 08:54:47;;;;;;;6.93;3.58;;;743.10;1945.60;;;;;;4973768;28;20023;-80
2021/08/08 08:57:15;;;;;;;5.68;3.40;;;743.10;1945.60;;;;;;4973601;28;20027;-82
2021/08/08 08:59:42;;;;;;;8.20;2.80;;;743.30;1945.60;;;;;;4972994;28;20023;-79
2021/08/08 09:02:07;;;;;;;6.80;2.83;;;743.30;1945.60;;;;;;4972882;28;20079;-80
2021/08/08 09:04:33;;;;;;;7.70;3.90;;;768.10;1920.00;;;;;;4973404;28;20445;-78
2021/08/08 09:06:59;;;;;;;7.97;3.53;;;768.30;1945.60;;;;;;4973400;28;20031;-79
2021/08/08 09:09:25;;;;;;;6.00;3.70;;;768.20;1920.00;;;;;;4972854;28;20112;-80
2021/08/08 09:11:52;;;;;;;6.97;4.90;;;768.50;1920.00;;;;;;4972849;28;20021;-79
2021/08/08 09:14:18;;;;;;;8.18;5.45;;;768.60;1920.00;;;;;;4972785;28;20023;-80
2021/08/08 09:16:55;;;;;;;8.85;4.55;;;768.90;1920.00;;;;;;4972882;28;20029;-79
2021/08/08 09:19:25;;;;;;;6.32;4.15;;;793.60;1920.00;;;;;;4972999;28;20022;-80
2021/08/08 09:21:51;;;;;;;6.78;3.00;;;793.70;1920.00;;;;;;4983535;28;20010;-77
2021/08/08 09:24:34;;;;;;;6.78;3.40;;;793.80;1894.40;;;;;;4980322;28;20136;-79
2021/08/08 09:27:12;;;;;;;6.15;3.28;;;768.90;1868.80;;;;;;4970773;28;20062;-79
2021/08/08 09:29:43;;;;;;;6.60;2.70;;;768.90;1868.80;;;;;;4972334;28;20109;-80
2021/08/08 09:32:10;;;;;;;9.30;5.32;;;768.90;1868.80;;;;;;4976082;28;20466;-80
2021/08/08 09:34:43;;;;;;;10.02;5.78;;;794.00;1868.80;;;;;;4976249;28;20412;-79
2021/08/08 09:37:22;;;;;;;6.38;3.80;;;794.20;1817.60;;;;;;4976645;28;20416;-79
2021/08/08 09:39:53;;;;;;;6.50;3.47;;;794.50;1817.60;;;;;;4976599;28;20019;-79
2021/08/08 09:42:22;;;;;;;3.55;2.10;;;819.20;1740.80;;;;;;4976145;28;20018;-79
2021/08/08 09:45:03;;;;;;;7.43;3.00;;;794.50;1715.20;;;;;;4976400;28;20027;-79
2021/08/08 09:47:37;;;;;;;12.88;6.05;;;794.20;1740.80;;;;;;4976231;28;20038;-79
2021/08/08 09:50:06;;;;;;;25.60;8.57;;;794.50;1792.00;;;;;;4975425;28;20491;-79
2021/08/08 09:52:33;;;;;;;9.25;3.78;;;819.40;1843.20;;;;;;4976267;28;20082;-81
2021/08/08 09:55:00;;;;;;;7.45;4.45;;;819.50;1715.20;;;;;;4976120;28;20023;-80
2021/08/08 09:57:36;;;;;;;7.90;2.58;;;819.50;1740.80;;;;;;4976269;28;20030;-80
2021/08/08 10:00:05;;;;;;;10.93;3.80;;;819.80;1766.40;;;;;;4976354;28;20058;-81
2021/08/08 10:02:31;;;;;;;9.05;6.03;;;820.00;1817.60;;;;;;4975952;28;20487;-80
2021/08/08 10:04:57;;;;;;;10.93;3.88;;;844.90;1740.80;;;;;;4975723;28;20027;-81
2021/08/08 10:07:23;;;;;;;9.85;3.42;;;845.20;1689.60;;;;;;4975732;28;20038;-79
2021/08/08 10:09:52;;;;;;;7.03;4.05;;;845.40;1664.00;;;;;;4975475;28;20023;-82
2021/08/08 10:12:40;;;;;;;9.95;2.65;;;845.50;1689.60;;;;;;4975458;28;20022;-82
2021/08/08 10:15:10;;;;;;;9.20;4.90;;;845.60;1638.40;;;;;;4975935;28;20049;-80
2021/08/08 10:17:46;;;;;;;5.85;3.22;;;845.70;1638.40;;;;;;4975325;28;20065;-82
2021/08/08 10:20:12;;;;;;;4.85;2.83;;;845.70;1638.40;;;;;;4975725;28;20019;-80
2021/08/08 10:22:42;;;;;;;5.93;3.95;;;845.50;1638.40;;;;;;4975186;28;20162;-81
2021/08/08 10:25:09;;;;;;;5.88;3.58;;;870.40;1638.40;;;;;;4975338;28;20023;-81
2021/08/08 10:27:36;;;;;;;9.23;3.65;;;870.70;1587.20;;;;;;5008217;28;20027;-81
2021/08/08 10:30:06;;;;;;;5.20;3.10;;;870.90;1612.80;;;;;;4975796;28;20027;-82
2021/08/08 10:32:34;;;;;;;6.47;3.75;;;871.20;1612.80;;;;;;4975941;28;20479;-84
2021/08/08 10:35:19;;;;;;;8.18;6.93;;;871.30;1587.20;;;;;;4975852;28;20026;-82
2021/08/08 10:38:38;;;;;;;16.00;11.10;;;896.00;1587.20;;;;;;4976067;28;20034;-84
2021/08/08 10:41:11;;;;;;;8.10;5.10;;;896.40;1587.20;;;;;;4975577;28;20029;-82
2021/08/08 10:43:37;;;;;;;5.15;3.03;;;896.70;1536.00;;;;;;4976107;28;20027;-81
2021/08/08 10:46:07;;;;;;;5.35;2.90;;;896.70;1536.00;;;;;;4975593;28;20109;-80
2021/08/08 10:48:34;;;;;;;8.88;3.53;;;896.90;1536.00;;;;;;4992361;28;21383;-82
2021/08/08 10:51:27;;;;;;;5.68;2.90;;;921.60;1561.60;;;;;;4975750;28;20503;-80
2021/08/08 10:54:26;;;;;;;7.80;2.97;;;921.80;1561.60;;;;;;4973733;28;20023;-80
2021/08/08 11:04:06;;;;;;;8.55;4.65;;;922.50;1484.80;;;;;;4942436;29;20018;-79
2021/08/08 11:13:03;;;;;;;14.02;4.20;;;947.30;1484.80;;;;;;4937483;29;20030;-81
2021/08/08 11:15:35;;;;;;;35.65;9.63;;;922.50;1459.20;;;;;;4922092;29;20126;-81
2021/08/08 11:18:30;;;;;;;21.38;7.35;;;922.50;1587.20;;;;;;4939321;29;20035;-80
2021/08/08 11:24:32;;;;;;;;;;;;;;;;;;;;;
2021/08/08 11:26:58;;;;;;;7.35;3.05;;;947.30;1561.60;;;;;;4957135;29;20035;-80
2021/08/08 11:29:33;;;;;;;7.35;3.38;;;947.50;1510.40;;;;;;4956043;29;20110;-80
2021/08/08 11:32:41;;;;;;;8.70;4.22;;;947.50;1433.60;;;;;;4953911;29;20027;-80
2021/08/08 11:35:17;;;;;;;14.02;4.70;;;947.80;1510.40;;;;;;4967942;28;20394;-82
2021/08/08 11:37:46;;;;;;;15.00;5.13;;;972.80;1484.80;;;;;;4955067;29;20074;-81
2021/08/08 11:40:18;;;;;;;12.25;4.75;;;948.00;1408.00;;;;;;4954965;29;20027;-82
2021/08/08 11:42:56;;;;;;;15.68;6.03;;;947.80;1484.80;;;;;;4955078;29;20100;-83
2021/08/08 11:45:37;;;;;;;10.73;5.45;;;948.10;1510.40;;;;;;4954845;29;20067;-82
2021/08/08 11:48:09;;;;;;;10.30;4.55;;;972.80;1510.40;;;;;;4954044;29;20023;-81
2021/08/08 11:50:58;;;;;;;6.13;3.78;;;948.10;1382.40;;;;;;4954850;28;20158;-81
2021/08/08 11:53:33;;;;;;;9.07;4.18;;;972.80;1433.60;;;;;;4953999;28;20038;-80
2021/08/08 11:56:16;;;;;;;8.27;5.50;;;973.20;1433.60;;;;;;4954512;29;20030;-79
2021/08/08 11:58:50;;;;;;;23.42;10.18;;;973.20;1433.60;;;;;;4954590;29;20019;-80
2021/08/08 12:01:19;;;;;;;17.27;8.25;;;973.20;1382.40;;;;;;4956147;28;20572;-80
2021/08/08 12:03:52;;;;;;;17.55;8.23;;;973.20;1408.00;;;;;;4954750;29;20024;-84
2021/08/08 12:06:22;;;;;;;14.30;6.38;;;973.20;1484.80;;;;;;4953613;29;20031;-81
2021/08/08 12:08:57;;;;;;;9.35;6.13;;;973.60;1459.20;;;;;;4954052;29;20019;-81
2021/08/08 12:11:23;;;;;;;10.82;6.97;;;973.20;1459.20;;;;;;4954869;29;20066;-83
2021/08/08 12:14:06;;;;;;;15.10;6.45;;;973.40;1382.40;;;;;;4955186;29;20019;-81
2021/08/08 12:16:37;;;;;;;6.65;4.47;;;973.50;1433.60;;;;;;4954550;29;20027;-82
2021/08/08 12:19:04;;;;;;;7.25;4.35;;;973.50;1408.00;;;;;;4954890;29;20035;-81
2021/08/08 12:21:37;;;;;;;9.68;4.13;;;973.50;1433.60;;;;;;4955384;29;20027;-83
2021/08/08 12:24:05;;;;;;;17.48;14.82;;;973.70;1484.80;;;;;;4954994;29;20027;-82
2021/08/08 12:26:47;;;;;;;7.93;5.55;;;973.70;1459.20;;;;;;4954668;29;20027;-81
2021/08/08 12:29:13;;;;;;;11.43;4.85;;;973.70;1382.40;;;;;;4955184;29;20473;-82
2021/08/08 12:31:42;;;;;;;9.57;4.07;;;973.70;1433.60;;;;;;4954753;29;20027;-82
2021/08/08 12:34:09;;;;;;;7.65;3.78;;;973.70;1408.00;;;;;;4954644;29;20063;-81
2021/08/08 12:36:41;;;;;;;5.80;3.53;;;998.60;1433.60;;;;;;4955146;29;20027;-84
2021/08/08 12:39:08;;;;;;;6.65;3.80;;;973.70;1356.80;;;;;;4967473;28;20353;-82
2021/08/08 12:41:40;;;;;;;8.57;3.33;;;998.50;1408.00;;;;;;4973701;28;20077;-82